Time;durP1;ratioP1;P1;durP2;ratioP2;P2;SDS_P1;SDS_P2;PMS_P1;PMS_P2;Temp;Humidity;BMP_temperature;BMP_pressure;BME280_temperature;BME280_humidity;BME280_pressure;Samples;Min_cycle;Max_cycle;Signal;HPM_P1;HPM_P2
2021/06/28 00:01:50;;;;;;;17.38;10.05;;;;;;;18.54;87.51;95272.75;5104795;28;20065;-68
2021/06/28 00:04:17;;;;;;;12.90;8.38;;;;;;;18.44;86.75;95253.56;5104942;28;20421;-67
2021/06/28 00:06:44;;;;;;;12.55;9.57;;;;;;;18.52;86.59;95269.63;5104007;28;20051;-68
2021/06/28 00:09:10;;;;;;;12.10;8.35;;;;;;;18.45;86.63;95269.13;5103777;28;20093;-67
2021/06/28 00:11:37;;;;;;;13.60;8.77;;;;;;;18.43;86.79;95271.22;5104827;28;20054;-67
2021/06/28 00:14:04;;;;;;;13.80;8.70;;;;;;;18.33;87.35;95271.28;5104650;28;20443;-67
2021/06/28 00:16:31;;;;;;;14.93;8.77;;;;;;;18.25;87.87;95275.25;5104774;28;20046;-68
2021/06/28 00:19:00;;;;;;;11.48;8.15;;;;;;;18.23;87.08;95280.00;5103944;28;20057;-68
2021/06/28 00:21:27;;;;;;;11.02;7.70;;;;;;;18.21;87.38;95268.94;5103613;28;20043;-67
2021/06/28 00:23:53;;;;;;;11.75;8.20;;;;;;;18.18;87.64;95266.06;5106241;28;20036;-67
2021/06/28 00:26:20;;;;;;;9.40;7.38;;;;;;;18.15;88.21;95259.47;5103542;28;20537;-67
2021/06/28 00:28:47;;;;;;;11.68;7.63;;;;;;;18.14;87.97;95263.94;5103528;28;20042;-67
2021/06/28 00:31:14;;;;;;;11.77;7.07;;;;;;;18.13;88.67;95272.91;5104802;28;20485;-67
2021/06/28 00:33:41;;;;;;;9.88;7.00;;;;;;;18.07;88.89;95263.44;5107853;28;20042;-67
2021/06/28 00:36:07;;;;;;;13.18;8.15;;;;;;;18.13;87.87;95278.19;5109069;28;20035;-68
2021/06/28 00:38:34;;;;;;;19.60;8.48;;;;;;;17.96;87.61;95256.59;5108747;27;20441;-67
2021/06/28 00:41:01;;;;;;;14.25;7.70;;;;;;;18.05;88.33;95273.47;5108857;27;20065;-67
2021/06/28 00:43:28;;;;;;;9.63;7.70;;;;;;;18.03;87.97;95278.22;5108611;27;20580;-67
2021/06/28 00:45:54;;;;;;;9.63;7.43;;;;;;;18.04;87.87;95279.81;5109020;28;20516;-68
2021/06/28 00:48:21;;;;;;;11.95;8.07;;;;;;;18.00;88.49;95273.47;5090384;28;20127;-67
2021/06/28 00:50:54;;;;;;;13.18;7.55;;;;;;;17.95;88.45;95276.09;5089849;28;20047;-67
2021/06/28 00:53:23;;;;;;;12.10;6.78;;;;;;;17.98;88.79;95274.78;5108852;28;20036;-67
2021/06/28 00:55:52;;;;;;;14.05;8.27;;;;;;;17.86;89.80;95267.16;5093385;27;20678;-67
2021/06/28 00:58:19;;;;;;;16.85;8.80;;;;;;;17.94;89.74;95270.03;5108635;28;20436;-67
2021/06/28 01:00:46;;;;;;;10.82;7.03;;;;;;;17.94;89.40;95258.72;5108391;27;20048;-67
2021/06/28 01:03:13;;;;;;;12.40;10.10;;;;;;;17.94;90.35;95264.78;5089686;28;20063;-67
2021/06/28 01:05:42;;;;;;;14.75;8.52;;;;;;;17.86;90.89;95264.53;5108357;28;20044;-68
2021/06/28 01:08:09;;;;;;;19.15;11.10;;;;;;;17.84;89.83;95266.59;5108320;27;20134;-67
2021/06/28 01:10:38;;;;;;;11.50;9.13;;;;;;;17.78;89.36;95250.03;5108774;28;20055;-68
2021/06/28 01:13:06;;;;;;;19.63;12.23;;;;;;;17.80;88.63;95262.94;5108297;28;20096;-67
2021/06/28 01:15:34;;;;;;;16.38;12.27;;;;;;;17.69;89.44;95256.88;5089761;28;20054;-67
2021/06/28 01:18:02;;;;;;;16.85;11.10;;;;;;;17.58;90.25;95261.38;5107293;28;20401;-67
2021/06/28 01:20:29;;;;;;;20.30;11.15;;;;;;;17.51;89.50;95260.84;5106633;28;20100;-68
2021/06/28 01:23:09;;;;;;;15.48;10.13;;;;;;;17.55;88.97;95256.63;5107077;27;20050;-67
2021/06/28 01:25:36;;;;;;;12.27;8.10;;;;;;;17.44;88.93;95244.53;5107158;28;20048;-67
2021/06/28 01:28:04;;;;;;;15.13;7.70;;;;;;;17.39;89.37;95264.53;5107697;28;20039;-68
2021/06/28 01:30:31;;;;;;;11.77;7.65;;;;;;;17.32;89.74;95269.28;5089708;28;20420;-67
2021/06/28 01:32:57;;;;;;;13.13;7.50;;;;;;;17.25;88.92;95258.22;5107870;27;20036;-67
2021/06/28 01:35:25;;;;;;;12.77;7.07;;;;;;;17.32;88.48;95264.00;5107710;27;20504;-67
2021/06/28 01:37:52;;;;;;;11.93;7.97;;;;;;;17.29;89.53;95264.53;5106589;28;20062;-67
2021/06/28 01:40:19;;;;;;;9.40;7.13;;;;;;;17.23;90.32;95259.50;5107603;28;20042;-67
2021/06/28 01:42:47;;;;;;;13.32;7.22;;;;;;;17.29;89.62;95272.41;5107478;28;20036;-68
2021/06/28 01:45:20;;;;;;;11.73;6.97;;;;;;;17.36;88.71;95275.59;5107020;27;20051;-68
2021/06/28 01:47:48;;;;;;;10.13;7.60;;;;;;;17.33;88.32;95273.47;5106198;28;20429;-68
2021/06/28 01:50:17;;;;;;;10.20;7.18;;;;;;;17.32;88.30;95279.81;5107584;28;20505;-68
2021/06/28 01:52:45;;;;;;;8.45;6.82;;;;;;;17.29;87.96;95275.06;5107387;28;20386;-68
2021/06/28 01:55:15;;;;;;;15.63;7.45;;;;;;;17.22;87.53;95269.25;5107333;28;20035;-67
2021/06/28 01:57:53;;;;;;;16.80;8.25;;;;;;;17.20;88.45;95277.41;5089033;28;20054;-67
2021/06/28 02:00:27;;;;;;;15.85;7.78;;;;;;;17.14;89.10;95277.66;5107379;27;20062;-67
2021/06/28 02:03:01;;;;;;;11.57;6.80;;;;;;;17.11;88.71;95272.94;5108893;27;20040;-67
2021/06/28 02:05:30;;;;;;;11.18;7.55;;;;;;;17.11;88.29;95272.94;5106159;27;20163;-67
2021/06/28 02:07:57;;;;;;;12.48;6.95;;;;;;;17.06;88.46;95265.81;5106202;28;20428;-67
2021/06/28 02:10:24;;;;;;;16.10;7.20;;;;;;;17.04;88.28;95275.81;5107296;28;20202;-68
2021/06/28 02:12:51;;;;;;;13.30;6.85;;;;;;;16.98;88.36;95275.00;5088778;28;20501;-67
2021/06/28 02:15:21;;;;;;;10.40;7.72;;;;;;;16.93;89.26;95271.59;5106980;27;20046;-67
2021/06/28 02:17:48;;;;;;;11.57;7.43;;;;;;;16.92;89.44;95270.78;5105943;27;20100;-67
2021/06/28 02:20:15;;;;;;;13.82;8.82;;;;;;;16.91;89.16;95268.44;5106742;27;20040;-67
2021/06/28 02:22:42;;;;;;;17.50;8.80;;;;;;;16.94;88.41;95267.88;5106072;27;20039;-67
2021/06/28 02:25:11;;;;;;;13.82;8.43;;;;;;;16.94;88.85;95284.47;5106796;28;20069;-67
2021/06/28 02:27:39;;;;;;;15.50;8.02;;;;;;;16.85;89.57;95283.38;5106781;28;20039;-67
2021/06/28 02:30:10;;;;;;;13.10;7.85;;;;;;;16.86;89.11;95287.59;5108446;27;20449;-68
2021/06/28 02:32:38;;;;;;;15.57;7.38;;;;;;;16.84;89.27;95284.44;5108123;27;20035;-67
2021/06/28 02:35:07;;;;;;;12.93;8.27;;;;;;;16.82;89.63;95282.03;5106616;28;20039;-68
2021/06/28 02:37:34;;;;;;;16.00;8.40;;;;;;;16.80;89.74;95283.38;5105159;27;20418;-67
2021/06/28 02:40:03;;;;;;;16.30;10.05;;;;;;;16.71;90.09;95275.19;5105532;28;20053;-68
2021/06/28 02:42:30;;;;;;;21.08;9.77;;;;;;;16.73;90.33;95282.81;5088668;28;20051;-67
2021/06/28 02:44:57;;;;;;;23.85;9.00;;;;;;;16.63;90.00;95271.19;5106462;28;20050;-67
2021/06/28 02:47:24;;;;;;;19.30;8.25;;;;;;;16.61;89.84;95275.91;5106470;28;20536;-67
2021/06/28 02:49:50;;;;;;;11.57;7.90;;;;;;;16.60;90.18;95287.50;5088061;28;20044;-67
2021/06/28 02:52:17;;;;;;;16.73;9.23;;;;;;;16.48;90.69;95280.88;5107911;27;20040;-67
2021/06/28 02:54:44;;;;;;;21.17;9.60;;;;;;;16.46;90.44;95281.13;5106204;28;20031;-67
2021/06/28 02:57:10;;;;;;;19.70;10.68;;;;;;;16.38;90.82;95268.47;5105416;27;20043;-67
2021/06/28 02:59:37;;;;;;;20.80;10.38;;;;;;;16.43;91.00;95284.25;5105252;28;20044;-67
2021/06/28 03:02:04;;;;;;;17.80;10.43;;;;;;;16.42;91.52;95277.41;5104975;27;20033;-67
2021/06/28 03:04:31;;;;;;;14.30;9.60;;;;;;;16.48;90.60;95294.81;5105803;28;20114;-67
2021/06/28 03:06:58;;;;;;;15.60;9.85;;;;;;;16.46;90.49;95288.22;5105927;28;20032;-67
2021/06/28 03:09:25;;;;;;;16.35;10.45;;;;;;;16.41;91.18;95289.00;5105979;28;20039;-67
2021/06/28 03:11:52;;;;;;;19.30;9.68;;;;;;;16.42;91.48;95285.31;5087805;28;20515;-67
2021/06/28 03:14:18;;;;;;;18.75;10.25;;;;;;;16.42;91.76;95287.94;5105614;27;20047;-67
2021/06/28 03:16:45;;;;;;;15.98;9.98;;;;;;;16.45;92.08;95295.31;5106762;27;20047;-67
2021/06/28 03:19:12;;;;;;;16.02;10.02;;;;;;;16.43;91.49;95290.31;5106105;28;20505;-67
2021/06/28 03:21:39;;;;;;;14.82;10.48;;;;;;;16.42;92.15;95293.19;5104039;28;20512;-67
2021/06/28 03:24:06;;;;;;;17.83;9.32;;;;;;;16.37;92.97;95290.56;5105629;28;20561;-67
2021/06/28 03:26:33;;;;;;;20.63;10.68;;;;;;;16.34;93.72;95297.09;5104566;28;20058;-67
2021/06/28 03:29:00;;;;;;;17.90;9.10;;;;;;;16.35;94.33;95295.25;5105771;28;20118;-67
2021/06/28 03:31:30;;;;;;;18.20;10.13;;;;;;;16.27;94.27;95282.63;5105544;27;20042;-68
2021/06/28 03:33:57;;;;;;;19.27;11.05;;;;;;;16.36;95.72;95294.22;5105262;28;20104;-67
2021/06/28 03:36:24;;;;;;;19.27;13.10;;;;;;;16.30;96.33;95279.47;5105214;28;20043;-67
2021/06/28 03:38:51;;;;;;;16.80;12.65;;;;;;;16.27;97.79;95287.88;5105518;28;20634;-66
2021/06/28 03:41:19;;;;;;;23.80;14.05;;;;;;;16.33;97.63;95295.53;5104195;28;20125;-68
2021/06/28 03:43:46;;;;;;;20.50;13.25;;;;;;;16.39;97.68;95291.09;5085778;28;20052;-67
2021/06/28 03:46:12;;;;;;;21.45;14.23;;;;;;;16.44;97.61;95291.13;5087259;28;20505;-67
2021/06/28 03:48:39;;;;;;;17.55;11.30;;;;;;;16.50;97.39;95300.59;5105184;28;20031;-68
2021/06/28 03:51:06;;;;;;;19.55;11.85;;;;;;;16.57;97.11;95301.16;5105288;27;20042;-67
2021/06/28 03:53:33;;;;;;;19.20;11.07;;;;;;;16.57;96.68;95290.63;5106729;27;20500;-67
2021/06/28 03:56:06;;;;;;;21.80;10.38;;;;;;;16.75;96.77;95307.78;5106576;28;20047;-67
2021/06/28 03:58:35;;;;;;;14.40;11.13;;;;;;;16.81;97.18;95304.13;5105167;28;20521;-67
2021/06/28 04:01:02;;;;;;;13.93;10.30;;;;;;;16.88;96.83;95311.81;5105033;28;20050;-67
2021/06/28 04:03:31;;;;;;;21.70;11.05;;;;;;;16.94;97.18;95308.16;5104980;28;20027;-67
2021/06/28 04:06:02;;;;;;;19.13;10.38;;;;;;;16.92;97.35;95312.09;5105129;27;20040;-67
2021/06/28 04:08:29;;;;;;;14.80;10.13;;;;;;;16.92;97.37;95304.97;5106193;27;20039;-68
2021/06/28 04:10:56;;;;;;;17.85;11.65;;;;;;;16.96;97.74;95302.63;5104889;28;20110;-67
2021/06/28 04:13:23;;;;;;;14.30;10.80;;;;;;;17.09;97.73;95306.63;5105056;28;20031;-67
2021/06/28 04:15:50;;;;;;;19.75;13.15;;;;;;;17.16;97.68;95301.88;5104946;28;20055;-67
2021/06/28 04:18:19;;;;;;;19.52;11.35;;;;;;;17.23;97.49;95302.41;5103423;28;20516;-67
2021/06/28 04:20:46;;;;;;;15.75;11.00;;;;;;;17.39;97.50;95311.94;5103805;28;20108;-68
2021/06/28 04:23:13;;;;;;;19.15;11.25;;;;;;;17.48;96.84;95314.81;5103570;28;20040;-67
2021/06/28 04:25:40;;;;;;;11.57;9.73;;;;;;;17.64;97.00;95320.09;5104450;28;20042;-68
2021/06/28 04:28:08;;;;;;;21.85;11.88;;;;;;;17.72;96.49;95320.38;5104888;28;20035;-67
2021/06/28 04:30:34;;;;;;;14.88;10.05;;;;;;;17.81;96.84;95322.47;5085574;28;20104;-67
2021/06/28 04:33:01;;;;;;;17.80;11.45;;;;;;;17.81;97.13;95311.91;5103745;28;20039;-67
2021/06/28 04:35:29;;;;;;;24.58;11.63;;;;;;;17.95;96.31;95323.53;5087944;28;20043;-68
2021/06/28 04:37:57;;;;;;;16.88;11.70;;;;;;;17.98;98.07;95325.66;5105749;28;20530;-67
2021/06/28 04:40:28;;;;;;;17.95;11.98;;;;;;;17.92;97.18;95316.97;5104186;28;20544;-67
2021/06/28 04:42:56;;;;;;;23.35;12.77;;;;;;;17.94;96.03;95321.97;5103465;28;20516;-68
2021/06/28 04:45:24;;;;;;;15.93;11.70;;;;;;;17.98;95.54;95332.78;5104817;28;20039;-68
2021/06/28 04:47:51;;;;;;;20.27;11.93;;;;;;;17.98;95.41;95327.50;5104577;28;20048;-67
2021/06/28 04:50:23;;;;;;;14.18;11.27;;;;;;;18.09;95.53;95323.78;5107648;28;20039;-67
2021/06/28 04:52:52;;;;;;;16.38;11.95;;;;;;;18.14;95.30;95316.66;5104180;28;20596;-68
2021/06/28 04:55:19;;;;;;;20.65;13.80;;;;;;;18.28;94.81;95324.03;5104281;28;20039;-67
2021/06/28 04:57:46;;;;;;;16.73;11.57;;;;;;;18.38;93.85;95328.47;5104601;28;20053;-67
2021/06/28 05:00:16;;;;;;;17.50;11.50;;;;;;;18.47;92.79;95325.00;5103252;28;20047;-67
2021/06/28 05:02:44;;;;;;;15.15;10.65;;;;;;;18.52;92.54;95326.84;5104667;28;20031;-67
2021/06/28 05:05:12;;;;;;;17.25;10.50;;;;;;;18.61;92.41;95329.75;5104375;28;20435;-67
2021/06/28 05:07:40;;;;;;;17.85;10.95;;;;;;;18.68;91.60;95335.50;5105041;28;20043;-67
2021/06/28 05:10:07;;;;;;;13.73;9.55;;;;;;;18.69;90.46;95337.88;5104370;28;20039;-67
2021/06/28 05:12:34;;;;;;;12.88;9.70;;;;;;;18.77;90.91;95330.47;5104855;28;20043;-67
2021/06/28 05:15:04;;;;;;;20.55;10.40;;;;;;;18.77;92.78;95339.16;5104357;28;20044;-67
2021/06/28 05:17:31;;;;;;;23.55;13.23;;;;;;;18.77;94.25;95333.91;5105794;28;20572;-67
2021/06/28 05:19:57;;;;;;;18.02;11.13;;;;;;;18.79;95.52;95336.28;5087780;27;20048;-67
2021/06/28 05:22:24;;;;;;;19.83;11.73;;;;;;;18.76;96.80;95342.06;5108249;27;20031;-67
2021/06/28 05:24:51;;;;;;;15.35;12.50;;;;;;;18.67;97.33;95347.13;5108382;27;20509;-67
2021/06/28 05:27:18;;;;;;;18.25;12.35;;;;;;;18.78;97.50;95342.59;5108028;28;20042;-67
2021/06/28 05:29:45;;;;;;;22.02;11.52;;;;;;;18.96;96.12;95335.94;5107710;28;20058;-67
2021/06/28 05:32:12;;;;;;;21.88;12.65;;;;;;;18.96;93.30;95347.31;5108172;27;20119;-67
2021/06/28 05:34:38;;;;;;;16.20;11.50;;;;;;;18.90;92.19;95343.09;5107831;28;20044;-67
2021/06/28 05:37:05;;;;;;;17.27;10.73;;;;;;;18.93;91.52;95347.06;5107576;27;20530;-67
2021/06/28 05:39:32;;;;;;;16.00;10.25;;;;;;;19.00;90.35;95345.72;5108166;28;20475;-67
2021/06/28 05:41:59;;;;;;;18.42;10.23;;;;;;;19.16;89.01;95351.72;5106249;27;20461;-67
2021/06/28 05:44:26;;;;;;;18.85;11.02;;;;;;;19.35;88.96;95359.00;5106313;28;20117;-67
2021/06/28 05:46:53;;;;;;;10.80;8.77;;;;;;;19.45;84.35;95358.94;5106403;28;20039;-67
2021/06/28 05:49:19;;;;;;;9.52;7.20;;;;;;;19.55;81.44;95353.56;5107257;28;20039;-67
2021/06/28 05:51:47;;;;;;;17.15;8.98;;;;;;;19.61;81.42;95357.78;5107553;28;20420;-67
2021/06/28 05:54:14;;;;;;;15.13;8.38;;;;;;;19.71;81.81;95361.41;5107557;28;20039;-67
2021/06/28 05:56:40;;;;;;;12.20;8.50;;;;;;;19.65;83.18;95342.94;5107481;28;20043;-67
2021/06/28 05:59:07;;;;;;;11.82;7.95;;;;;;;19.84;80.60;95363.44;5107478;28;20036;-68
2021/06/28 06:01:36;;;;;;;13.30;8.23;;;;;;;19.96;79.56;95369.16;5107216;27;20051;-67
2021/06/28 06:04:03;;;;;;;10.20;8.18;;;;;;;20.09;80.22;95356.38;5111249;27;20071;-67
2021/06/28 06:06:34;;;;;;;13.00;8.90;;;;;;;20.18;80.15;95365.28;5110589;27;20047;-67
2021/06/28 06:09:01;;;;;;;13.55;7.95;;;;;;;20.25;78.67;95365.75;5111081;27;20088;-67
2021/06/28 06:11:28;;;;;;;10.85;7.65;;;;;;;20.39;78.57;95364.00;5091767;27;20043;-67
2021/06/28 06:13:55;;;;;;;11.43;7.95;;;;;;;20.44;79.81;95361.31;5110121;27;20039;-67
2021/06/28 06:16:24;;;;;;;10.98;7.68;;;;;;;20.58;79.24;95368.56;5105563;28;20059;-67
2021/06/28 06:18:52;;;;;;;16.48;8.38;;;;;;;20.67;79.44;95366.94;5109223;27;20044;-67
2021/06/28 06:21:25;;;;;;;11.45;7.70;;;;;;;20.69;78.84;95364.81;5110661;27;20046;-67
2021/06/28 06:23:52;;;;;;;10.70;7.40;;;;;;;20.84;78.05;95371.00;5106114;27;20044;-67
2021/06/28 06:26:19;;;;;;;12.07;7.18;;;;;;;20.72;78.59;95369.50;5106632;27;20032;-67
2021/06/28 06:28:46;;;;;;;13.32;7.72;;;;;;;20.91;77.64;95371.44;5106785;28;20130;-67
2021/06/28 06:31:13;;;;;;;11.30;7.45;;;;;;;21.08;76.45;95369.09;5106451;28;20050;-67
2021/06/28 06:33:40;;;;;;;11.02;6.63;;;;;;;21.21;73.60;95364.94;5106956;28;20047;-67
2021/06/28 06:36:07;;;;;;;16.80;7.68;;;;;;;21.16;72.54;95368.47;5092185;27;20052;-67
2021/06/28 06:38:34;;;;;;;10.88;6.53;;;;;;;21.26;72.42;95377.34;5106311;27;20036;-68
2021/06/28 06:41:01;;;;;;;11.68;6.47;;;;;;;21.35;74.56;95378.28;5105313;28;20131;-68
2021/06/28 06:43:28;;;;;;;12.73;6.85;;;;;;;21.42;71.81;95370.78;5106158;28;20031;-67
2021/06/28 06:45:55;;;;;;;10.32;6.40;;;;;;;21.50;71.03;95370.19;5091258;28;20504;-67
2021/06/28 06:48:22;;;;;;;12.07;6.50;;;;;;;21.66;71.19;95369.94;5106610;28;20181;-67
2021/06/28 06:50:49;;;;;;;11.95;6.72;;;;;;;21.83;69.89;95380.81;5105932;28;20044;-67
2021/06/28 06:53:16;;;;;;;8.52;5.75;;;;;;;21.89;69.55;95369.03;5106509;28;20067;-67
2021/06/28 06:55:43;;;;;;;10.43;6.53;;;;;;;21.96;68.62;95374.78;5105853;28;20031;-68
2021/06/28 06:58:10;;;;;;;14.73;6.35;;;;;;;22.09;68.33;95377.75;5106058;28;20042;-67
2021/06/28 07:00:39;;;;;;;22.67;7.85;;;;;;;22.16;68.20;95367.56;5106512;27;20698;-68
2021/06/28 07:03:07;;;;;;;9.52;7.10;;;;;;;22.32;68.04;95371.56;5105611;27;20039;-69
2021/06/28 07:05:35;;;;;;;14.77;7.32;;;;;;;22.31;69.03;95364.69;5105769;28;20036;-69
2021/06/28 07:08:03;;;;;;;12.05;7.47;;;;;;;22.31;69.75;95367.34;5106402;28;20566;-69
2021/06/28 07:10:31;;;;;;;13.73;8.30;;;;;;;22.48;68.89;95368.63;5105840;27;20035;-68
2021/06/28 07:12:57;;;;;;;11.27;7.18;;;;;;;22.67;71.24;95372.00;5104882;28;20038;-69
2021/06/28 07:15:24;;;;;;;10.98;7.43;;;;;;;22.94;70.08;95370.44;5090722;28;20043;-69
2021/06/28 07:17:51;;;;;;;14.85;7.25;;;;;;;22.99;68.78;95367.66;5106146;27;20043;-69
2021/06/28 07:20:22;;;;;;;16.77;7.32;;;;;;;23.08;68.41;95360.63;5104982;28;20042;-69
2021/06/28 07:22:53;;;;;;;14.30;7.95;;;;;;;23.25;67.17;95365.28;5104302;28;20118;-69
2021/06/28 07:25:21;;;;;;;9.82;7.13;;;;;;;23.38;68.65;95371.66;5104549;28;20126;-69
2021/06/28 07:27:49;;;;;;;12.80;6.22;;;;;;;23.55;63.98;95363.06;5105806;28;20039;-69
2021/06/28 07:30:20;;;;;;;19.48;6.05;;;;;;;23.67;61.67;95354.56;5105614;27;20050;-68
2021/06/28 07:32:50;;;;;;;9.80;5.70;;;;;;;23.64;60.69;95361.25;5105794;28;20046;-68
2021/06/28 07:35:19;;;;;;;12.15;5.97;;;;;;;23.70;60.82;95353.16;5105600;28;20050;-69
2021/06/28 07:37:46;;;;;;;8.02;5.85;;;;;;;23.80;62.04;95351.06;5105139;28;20933;-69
2021/06/28 07:40:14;;;;;;;12.23;6.70;;;;;;;23.98;60.63;95353.84;5104331;28;20051;-69
2021/06/28 07:42:41;;;;;;;9.68;6.25;;;;;;;24.11;59.93;95358.34;5104933;28;20036;-69
2021/06/28 07:45:09;;;;;;;12.55;6.55;;;;;;;24.30;60.33;95354.66;5105194;28;20039;-69
2021/06/28 07:47:36;;;;;;;9.30;6.13;;;;;;;24.51;60.47;95350.38;5105290;27;20416;-69
2021/06/28 07:50:04;;;;;;;15.38;6.38;;;;;;;24.69;59.99;95355.81;5108952;27;20044;-68
2021/06/28 07:52:31;;;;;;;11.95;5.47;;;;;;;24.91;60.41;95362.94;5108561;27;20046;-69
2021/06/28 07:54:59;;;;;;;13.13;6.43;;;;;;;25.02;59.21;95347.44;5104008;28;20062;-69
2021/06/28 07:57:26;;;;;;;13.93;5.93;;;;;;;25.15;59.58;95357.97;5105170;28;20043;-69
2021/06/28 07:59:53;;;;;;;9.05;6.00;;;;;;;25.31;58.16;95360.22;5104925;28;20057;-69
2021/06/28 08:02:20;;;;;;;9.73;5.63;;;;;;;25.44;58.78;95361.16;5104983;28;20036;-69
2021/06/28 08:04:47;;;;;;;13.43;6.53;;;;;;;25.57;59.66;95362.91;5104816;28;20109;-69
2021/06/28 08:07:14;;;;;;;11.18;5.90;;;;;;;25.75;58.82;95359.16;5105188;28;20414;-69
2021/06/28 08:10:00;;;;;;;14.32;6.32;;;;;;;25.98;58.92;95361.66;5104734;28;20050;-69
2021/06/28 08:12:27;;;;;;;9.18;4.78;;;;;;;26.23;56.20;95356.59;5108248;27;20126;-69
2021/06/28 08:14:54;;;;;;;14.32;5.43;;;;;;;26.29;57.33;95358.00;5107719;28;20104;-69
2021/06/28 08:17:21;;;;;;;12.82;5.30;;;;;;;26.39;52.94;95349.63;5107839;28;20060;-69
2021/06/28 08:19:48;;;;;;;13.40;5.03;;;;;;;26.51;51.49;95363.09;5103617;28;20035;-69
2021/06/28 08:22:15;;;;;;;9.57;5.63;;;;;;;26.29;52.68;95366.00;5103201;28;20044;-69
2021/06/28 08:24:42;;;;;;;11.90;6.05;;;;;;;26.50;51.75;95372.19;5103538;28;20032;-69
2021/06/28 08:27:10;;;;;;;10.75;5.07;;;;;;;26.67;51.89;95370.63;5104924;28;20044;-68
2021/06/28 08:29:38;;;;;;;14.88;5.68;;;;;;;26.80;52.88;95368.84;5110491;28;20039;-68
2021/06/28 08:32:05;;;;;;;10.82;5.57;;;;;;;26.94;50.95;95368.59;5107600;28;20031;-69
2021/06/28 08:34:32;;;;;;;5.90;4.60;;;;;;;26.97;50.59;95362.63;5109736;28;20079;-69
2021/06/28 08:37:00;;;;;;;8.23;4.45;;;;;;;27.35;50.08;95372.47;5110307;28;20047;-69
2021/06/28 08:39:28;;;;;;;7.80;4.80;;;;;;;27.67;50.08;95367.53;5109101;28;20036;-69
2021/06/28 08:41:57;;;;;;;9.05;4.10;;;;;;;27.85;46.72;95363.59;5107550;28;20044;-69
2021/06/28 08:44:24;;;;;;;5.50;4.50;;;;;;;28.06;47.09;95365.50;5108412;28;20031;-69
2021/06/28 08:46:51;;;;;;;7.97;4.55;;;;;;;28.06;46.65;95357.47;5107761;28;20035;-68
2021/06/28 08:49:18;;;;;;;8.05;4.60;;;;;;;28.20;44.31;95363.31;5103825;28;20525;-69
2021/06/28 08:51:45;;;;;;;7.65;4.65;;;;;;;28.27;44.70;95358.22;5103209;28;20040;-69
2021/06/28 08:54:14;;;;;;;7.22;3.97;;;;;;;28.47;44.65;95355.75;5106929;28;20073;-69
2021/06/28 08:56:44;;;;;;;14.77;4.55;;;;;;;28.21;45.37;95359.50;5108465;28;20043;-69
2021/06/28 08:59:18;;;;;;;10.90;4.25;;;;;;;28.51;44.57;95351.31;5108936;28;20043;-69
2021/06/28 09:01:45;;;;;;;8.27;4.20;;;;;;;28.71;43.30;95345.09;5108331;28;20079;-69
2021/06/28 09:04:12;;;;;;;9.70;3.78;;;;;;;28.89;41.80;95350.25;5107938;28;20126;-69
2021/06/28 09:06:40;;;;;;;7.53;3.78;;;;;;;29.11;41.90;95347.09;5106907;28;20051;-69
2021/06/28 09:09:10;;;;;;;7.65;3.65;;;;;;;29.21;39.44;95355.81;5106777;28;20082;-68
2021/06/28 09:11:51;;;;;;;5.70;3.67;;;;;;;28.67;41.71;95338.88;5108219;27;20607;-68
2021/06/28 09:14:24;;;;;;;9.32;4.03;;;;;;;28.77;40.17;95353.69;5106881;28;20036;-69
2021/06/28 09:16:50;;;;;;;7.30;3.75;;;;;;;28.93;39.28;95351.13;5107786;27;20048;-69
2021/06/28 09:19:19;;;;;;;8.75;3.50;;;;;;;29.10;39.81;95350.91;5112637;27;20054;-69
2021/06/28 09:21:55;;;;;;;11.70;6.72;;;;;;;29.31;39.76;95366.09;5107162;28;20051;-69
2021/06/28 09:24:26;;;;;;;5.25;3.75;;;;;;;29.58;38.08;95347.72;5105391;28;20120;-69
2021/06/28 09:26:56;;;;;;;7.50;4.10;;;;;;;29.78;38.45;95351.34;5107286;28;20055;-68
2021/06/28 09:29:34;;;;;;;8.77;3.42;;;;;;;29.64;38.70;95346.34;5108238;28;20089;-68
2021/06/28 09:32:13;;;;;;;6.90;3.72;;;;;;;29.28;40.06;95356.03;5107010;28;20137;-69
2021/06/28 09:34:41;;;;;;;5.15;3.50;;;;;;;29.78;39.70;95346.75;5108112;28;20032;-68
2021/06/28 09:37:13;;;;;;;5.50;3.50;;;;;;;30.12;38.13;95355.34;5107918;28;20435;-69
2021/06/28 09:39:48;;;;;;;9.02;3.47;;;;;;;30.53;39.71;95353.34;5106737;27;20050;-69
2021/06/28 09:42:19;;;;;;;9.60;3.92;;;;;;;30.83;38.31;95351.00;5092198;27;20044;-69
2021/06/28 09:45:09;;;;;;;8.20;3.22;;;;;;;31.13;36.12;95357.84;5111961;27;20042;-69
2021/06/28 09:47:36;;;;;;;5.78;3.42;;;;;;;30.97;37.55;95350.59;5110782;27;20035;-67
2021/06/28 09:50:11;;;;;;;6.63;3.22;;;;;;;30.86;39.86;95350.31;5106615;28;20067;-67
2021/06/28 09:52:39;;;;;;;5.03;2.95;;;;;;;31.26;36.45;95351.22;5107143;28;20036;-67
2021/06/28 09:55:25;;;;;;;9.48;3.65;;;;;;;31.36;38.08;95345.28;5106543;28;20413;-67
2021/06/28 09:58:06;;;;;;;5.32;2.85;;;;;;;31.61;35.38;95350.44;5106587;28;20472;-67
2021/06/28 10:00:38;;;;;;;7.00;2.92;;;;;;;32.10;33.58;95349.84;5107215;28;20031;-66
2021/06/28 10:03:31;;;;;;;5.57;3.35;;;;;;;31.71;39.10;95349.88;5106614;28;20066;-67
2021/06/28 10:06:15;;;;;;;5.10;3.15;;;;;;;32.04;34.33;95359.38;5109573;27;20036;-67
2021/06/28 10:08:45;;;;;;;6.95;3.15;;;;;;;32.44;33.06;95358.16;5106585;28;20050;-67
2021/06/28 10:11:23;;;;;;;5.25;2.65;;;;;;;32.77;37.58;95346.00;5108595;27;20050;-66
2021/06/28 10:14:08;;;;;;;4.80;3.50;;;;;;;33.04;33.28;95346.03;5105745;27;20047;-66
2021/06/28 10:16:37;;;;;;;6.88;3.20;;;;;;;33.22;33.34;95349.75;5106413;27;20047;-67
2021/06/28 10:19:07;;;;;;;7.75;3.33;;;;;;;33.45;32.10;95348.94;5109852;27;20089;-67
2021/06/28 10:21:36;;;;;;;7.15;3.33;;;;;;;33.33;32.69;95350.72;5109864;27;20037;-66
2021/06/28 10:24:04;;;;;;;8.43;2.97;;;;;;;32.61;34.93;95342.66;5103755;28;20042;-66
2021/06/28 10:26:31;;;;;;;6.40;3.60;;;;;;;32.67;31.46;95343.94;5105220;28;20529;-66
2021/06/28 10:28:58;;;;;;;4.93;2.60;;;;;;;32.84;31.06;95338.03;5087082;28;20058;-66
2021/06/28 10:31:25;;;;;;;5.07;2.65;;;;;;;33.15;31.80;95338.88;5106664;28;20044;-66
2021/06/28 10:33:55;;;;;;;3.05;2.22;;;;;;;33.38;33.39;95333.41;5106315;28;20154;-66
2021/06/28 10:36:29;;;;;;;6.30;2.65;;;;;;;33.60;32.41;95339.88;5104560;28;20047;-67
2021/06/28 10:38:57;;;;;;;4.45;3.08;;;;;;;34.00;29.10;95330.31;5086297;28;20191;-67
2021/06/28 10:41:49;;;;;;;6.32;2.70;;;;;;;34.25;30.20;95330.59;5085695;28;20108;-67
2021/06/28 10:44:17;;;;;;;6.00;2.78;;;;;;;34.00;29.63;95330.31;5103647;28;20530;-67
2021/06/28 10:46:47;;;;;;;6.07;3.03;;;;;;;33.82;29.60;95324.72;5103709;28;20044;-67
2021/06/28 10:49:14;;;;;;;4.78;2.88;;;;;;;33.90;29.15;95329.03;5102280;27;20055;-67
2021/06/28 10:51:45;;;;;;;4.32;2.65;;;;;;;34.11;29.94;95329.66;5102818;27;20035;-67
2021/06/28 10:54:16;;;;;;;15.13;3.05;;;;;;;34.21;29.43;95312.78;5102980;28;20039;-67
2021/06/28 10:56:48;;;;;;;6.13;2.75;;;;;;;34.34;31.19;95327.59;5103847;28;20071;-67
2021/06/28 10:59:15;;;;;;;6.67;2.57;;;;;;;34.35;30.22;95318.31;5104855;27;20047;-67
2021/06/28 11:02:05;;;;;;;6.75;2.72;;;;;;;34.55;28.20;95320.78;5104374;28;20050;-67
2021/06/28 11:04:39;;;;;;;6.65;3.45;;;;;;;34.84;29.04;95311.78;5104557;27;20603;-67
2021/06/28 11:07:09;;;;;;;5.45;2.92;;;;;;;34.77;29.03;95317.16;5103858;28;20135;-67
2021/06/28 11:09:40;;;;;;;6.00;2.70;;;;;;;34.70;29.74;95311.69;5105532;28;20040;-68
2021/06/28 11:12:29;;;;;;;5.45;2.35;;;;;;;34.84;28.62;95297.47;5106090;27;20043;-67
2021/06/28 11:15:00;;;;;;;5.15;2.78;;;;;;;35.00;27.36;95308.00;5107608;27;20062;-67
2021/06/28 11:17:50;;;;;;;5.38;2.70;;;;;;;35.40;27.80;95295.47;5105187;27;20051;-67
2021/06/28 11:20:25;;;;;;;4.88;2.45;;;;;;;35.12;27.66;95302.28;5104683;28;20398;-67
2021/06/28 11:23:10;;;;;;;4.57;2.70;;;;;;;35.17;29.45;95291.09;5104720;27;20054;-67
2021/06/28 11:25:50;;;;;;;8.10;2.80;;;;;;;34.64;30.20;95292.28;5105554;28;20055;-67
2021/06/28 11:28:33;;;;;;;6.53;2.90;;;;;;;34.50;31.49;95294.09;5105047;28;20047;-67
2021/06/28 11:31:04;;;;;;;4.18;2.80;;;;;;;34.71;28.18;95288.88;5107156;27;20046;-67
2021/06/28 11:33:50;;;;;;;4.43;2.58;;;;;;;35.08;29.64;95293.38;5089121;28;20067;-67
2021/06/28 11:36:23;;;;;;;8.57;2.30;;;;;;;35.70;30.78;95289.03;5105531;28;20040;-67